createdAt,value
2023-10-09T00:00:38.644Z,69.15
2023-10-09T00:03:29.508Z,69.42
2023-10-09T00:05:59.216Z,69.30
2023-10-09T00:08:37.772Z,69.11
2023-10-09T00:11:20.352Z,69.13
2023-10-09T00:13:53.090Z,69.23
2023-10-09T00:16:33.010Z,69.32
2023-10-09T00:19:15.933Z,69.71
2023-10-09T00:21:42.960Z,69.55
2023-10-09T00:24:14.099Z,69.50
2023-10-09T00:26:46.178Z,69.60
2023-10-09T00:29:22.431Z,69.47
2023-10-09T00:32:08.149Z,69.40
2023-10-09T00:34:40.118Z,69.29
2023-10-09T00:37:16.680Z,69.46
2023-10-09T00:39:44.598Z,69.69
2023-10-09T00:42:19.330Z,69.86
2023-10-09T00:44:54.246Z,69.85
2023-10-09T00:47:32.190Z,69.73
2023-10-09T00:50:01.513Z,69.72
2023-10-09T00:52:35.766Z,69.83
2023-10-09T00:55:08.635Z,69.77
2023-10-09T00:57:40.965Z,69.83
2023-10-09T01:00:33.170Z,69.80
2023-10-09T01:03:20.589Z,69.80
2023-10-09T01:06:11.691Z,69.69
2023-10-09T01:08:45.162Z,69.74
2023-10-09T01:11:20.787Z,69.80
2023-10-09T01:13:50.802Z,69.88
2023-10-09T01:16:19.774Z,69.79
2023-10-09T01:18:52.446Z,69.76
2023-10-09T01:21:24.848Z,69.83
2023-10-09T01:24:09.013Z,69.99
2023-10-09T01:26:41.007Z,70.15
2023-10-09T01:29:15.488Z,70.08
2023-10-09T01:32:01.284Z,70.05
2023-10-09T01:34:53.043Z,70.09
2023-10-09T01:37:30.871Z,70.15
2023-10-09T01:40:36.331Z,70.36
2023-10-09T01:43:04.463Z,70.29
2023-10-09T01:45:42.764Z,70.04
2023-10-09T01:48:09.846Z,70.18
2023-10-09T01:50:40.424Z,70.23
2023-10-09T01:53:09.332Z,70.20
2023-10-09T01:55:41.195Z,70.13
2023-10-09T01:58:28.184Z,70.19
2023-10-09T02:00:57.948Z,70.20
2023-10-09T02:03:24.925Z,70.17
2023-10-09T02:05:55.068Z,70.19
2023-10-09T02:08:36.141Z,70.10
2023-10-09T02:11:03.567Z,70.24
2023-10-09T02:13:42.394Z,70.22
2023-10-09T02:16:15.426Z,70.09
2023-10-09T02:18:59.588Z,70.13
2023-10-09T02:21:40.464Z,70.12
2023-10-09T02:24:10.107Z,70.20
2023-10-09T02:26:59.924Z,70.19
2023-10-09T02:29:28.923Z,70.16
2023-10-09T02:32:01.560Z,70.10
2023-10-09T02:34:29.149Z,70.15
2023-10-09T02:37:01.635Z,70.26
2023-10-09T02:39:29.408Z,70.34
2023-10-09T02:42:18.414Z,70.35
2023-10-09T02:44:50.236Z,70.45
2023-10-09T02:47:30.104Z,70.47
2023-10-09T02:50:07.108Z,70.49
2023-10-09T02:52:42.818Z,70.46
2023-10-09T02:55:14.008Z,70.58
2023-10-09T02:57:42.328Z,70.61
2023-10-09T03:00:19.466Z,70.57
2023-10-09T03:02:50.288Z,70.52
2023-10-09T03:05:32.997Z,70.44
2023-10-09T03:07:59.979Z,70.42
2023-10-09T03:10:26.760Z,70.42
2023-10-09T03:12:56.485Z,70.47
2023-10-09T03:15:23.355Z,70.43
2023-10-09T03:17:50.378Z,70.42
2023-10-09T03:20:19.920Z,70.46
2023-10-09T03:22:51.368Z,70.53
2023-10-09T03:25:18.549Z,70.62
2023-10-09T03:27:46.678Z,70.57
2023-10-09T03:30:23.096Z,70.57
2023-10-09T03:32:54.373Z,70.59
2023-10-09T03:35:34.612Z,70.59
2023-10-09T03:38:12.194Z,70.56
2023-10-09T03:40:47.681Z,70.59
2023-10-09T03:43:17.474Z,70.60
2023-10-09T03:45:54.731Z,70.60
2023-10-09T03:48:23.404Z,70.62
2023-10-09T03:51:09.859Z,70.73
2023-10-09T03:53:37.269Z,70.87
2023-10-09T03:56:16.283Z,70.95
2023-10-09T03:58:57.315Z,71.01
2023-10-09T04:06:39.409Z,70.98
2023-10-09T04:11:53.013Z,70.89
2023-10-09T04:18:45.584Z,71.02
2023-10-09T04:21:28.557Z,70.92
2023-10-09T05:10:59.804Z,71.65
2023-10-09T05:14:34.986Z,71.63
2023-10-09T05:19:03.483Z,71.61
2023-10-09T05:24:53.623Z,71.61
2023-10-09T05:35:21.682Z,71.74
2023-10-09T05:42:54.054Z,71.66
2023-10-09T05:49:54.395Z,71.58
2023-10-09T06:01:23.362Z,71.57
2023-10-09T06:04:56.513Z,71.79
2023-10-09T06:17:14.654Z,72.00
2023-10-09T06:21:20.397Z,71.93
2023-10-09T06:55:44.948Z,72.18
2023-10-09T11:18:42.866Z,66.65
2023-10-09T11:21:11.766Z,66.80
2023-10-09T11:34:29.766Z,66.17
2023-10-09T14:22:25.678Z,68.55
2023-10-09T14:25:34.301Z,68.33
2023-10-09T14:31:51.782Z,68.21
2023-10-09T14:37:58.746Z,68.17
2023-10-09T14:44:42.694Z,68.30
2023-10-09T14:54:15.755Z,68.37
2023-10-09T15:01:18.941Z,68.43
2023-10-09T15:17:52.798Z,68.57
2023-10-09T15:20:35.743Z,68.83
2023-10-09T15:29:44.581Z,69.10
2023-10-09T15:32:41.150Z,69.31
2023-10-09T15:36:08.804Z,69.22
2023-10-09T15:39:26.758Z,69.43
2023-10-09T15:42:36.650Z,69.66
2023-10-09T15:46:00.596Z,69.84
2023-10-09T15:49:33.785Z,69.74
2023-10-09T15:52:42.577Z,69.94
2023-10-09T15:56:03.732Z,69.83
2023-10-09T15:58:58.432Z,70.10
2023-10-09T16:01:51.201Z,69.77
2023-10-09T16:05:15.629Z,70.11
2023-10-09T16:08:15.224Z,70.11
2023-10-09T16:10:48.111Z,70.41
2023-10-09T16:13:18.482Z,70.46
2023-10-09T16:15:45.421Z,70.47
2023-10-09T16:18:49.422Z,70.65
2023-10-09T16:21:16.549Z,70.71
2023-10-09T16:23:43.762Z,70.75
2023-10-09T16:26:15.689Z,70.91
2023-10-09T16:28:43.574Z,71.04
2023-10-09T16:31:37.145Z,71.21
2023-10-09T16:34:07.718Z,71.34
2023-10-09T16:36:35.871Z,71.48
2023-10-09T16:39:30.003Z,71.68
2023-10-09T16:41:58.029Z,71.83
2023-10-09T16:44:25.089Z,71.62
2023-10-09T16:46:54.909Z,71.65
2023-10-09T16:49:25.631Z,71.79
2023-10-09T16:51:55.636Z,71.91
2023-10-09T16:54:23.006Z,71.93
2023-10-09T16:57:30.915Z,71.97
2023-10-09T16:59:58.478Z,72.01
2023-10-09T17:02:28.119Z,72.07
2023-10-09T17:04:57.706Z,72.09
2023-10-09T17:07:28.362Z,72.10
2023-10-09T17:09:58.456Z,72.20
2023-10-09T17:12:31.054Z,72.15
2023-10-09T17:14:58.918Z,72.22
2023-10-09T17:17:26.035Z,72.32
2023-10-09T17:19:56.648Z,72.25
2023-10-09T17:22:26.146Z,72.33
2023-10-09T17:24:56.272Z,72.27
2023-10-09T17:27:23.407Z,72.29
2023-10-09T17:29:50.484Z,72.29
2023-10-09T17:32:20.950Z,72.39
2023-10-09T17:34:47.832Z,72.45
2023-10-09T17:40:30.198Z,72.49
2023-10-09T17:43:16.057Z,72.47
2023-10-09T17:45:47.958Z,72.54
2023-10-09T17:48:17.813Z,72.50
2023-10-09T17:50:45.524Z,72.64
2023-10-09T17:53:14.915Z,72.69
2023-10-09T17:55:44.822Z,72.81
2023-10-09T17:58:15.071Z,72.79
2023-10-09T18:00:45.938Z,72.87
2023-10-09T18:03:19.734Z,72.97
2023-10-09T18:06:13.334Z,73.15
2023-10-09T18:08:40.272Z,73.12
2023-10-09T18:11:07.297Z,73.22
2023-10-09T18:13:36.821Z,73.33
2023-10-09T18:16:14.616Z,73.33
2023-10-09T18:18:41.675Z,73.39
2023-10-09T18:21:09.368Z,73.40
2023-10-09T18:23:37.464Z,73.37
2023-10-09T18:26:06.549Z,73.36
2023-10-09T18:28:37.007Z,73.28
2023-10-09T18:31:10.616Z,73.24
2023-10-09T18:36:57.431Z,73.27
2023-10-09T18:39:48.918Z,73.24
2023-10-09T18:42:16.103Z,73.28
2023-10-09T18:44:44.388Z,73.22
2023-10-09T18:47:33.952Z,73.22
2023-10-09T18:50:03.968Z,73.28
2023-10-09T18:52:33.877Z,73.35
2023-10-09T18:55:02.229Z,73.42
2023-10-09T18:57:28.924Z,73.48
2023-10-09T19:00:01.836Z,73.48
2023-10-09T19:02:28.898Z,73.51
2023-10-09T19:08:08.686Z,73.65
2023-10-09T19:10:37.766Z,73.65
2023-10-09T19:13:10.645Z,73.63
2023-10-09T19:15:53.212Z,73.62
2023-10-09T19:18:22.604Z,73.67
2023-10-09T19:21:37.153Z,73.70
2023-10-09T19:24:51.949Z,73.78
2023-10-09T19:27:44.042Z,73.77
2023-10-09T19:30:16.981Z,73.81
2023-10-09T19:32:49.045Z,73.78
2023-10-09T19:35:16.676Z,73.77
2023-10-09T19:37:47.005Z,73.76
2023-10-09T19:40:16.933Z,73.78
2023-10-09T19:42:43.937Z,73.84
2023-10-09T19:48:51.030Z,73.85
2023-10-09T19:51:18.536Z,73.78
2023-10-09T19:53:46.396Z,73.71
2023-10-09T19:56:13.688Z,73.81
2023-10-09T19:58:43.869Z,73.84
2023-10-09T20:01:14.344Z,73.93
2023-10-09T20:03:45.095Z,73.96
2023-10-09T20:06:15.779Z,74.25
2023-10-09T20:08:45.939Z,74.38
2023-10-09T20:11:15.565Z,74.55
2023-10-09T20:14:24.148Z,74.75
2023-10-09T20:17:19.013Z,74.98
2023-10-09T20:19:52.515Z,74.99
2023-10-09T20:22:20.417Z,75.11
2023-10-09T20:24:48.633Z,75.11
2023-10-09T20:27:40.899Z,75.14
2023-10-09T20:30:17.568Z,75.23
2023-10-09T20:32:48.045Z,75.02
2023-10-09T20:35:16.067Z,74.97
2023-10-09T20:37:48.804Z,75.10
2023-10-09T20:40:21.915Z,75.31
2023-10-09T20:42:50.165Z,75.44
2023-10-09T20:45:40.524Z,75.54
2023-10-09T20:48:09.236Z,75.61
2023-10-09T20:51:18.489Z,75.64
2023-10-09T20:54:16.024Z,75.78
2023-10-09T20:58:05.573Z,75.70
2023-10-09T21:00:38.458Z,75.67
2023-10-09T21:03:08.790Z,75.58
2023-10-09T21:05:37.459Z,75.45
2023-10-09T21:08:12.807Z,75.38
2023-10-09T21:10:52.641Z,75.39
2023-10-09T21:13:24.781Z,75.33
2023-10-09T21:16:07.858Z,75.33
2023-10-09T21:18:40.003Z,75.39
2023-10-09T21:21:16.600Z,75.44
2023-10-09T21:23:45.834Z,75.53
2023-10-09T21:26:22.764Z,75.59
2023-10-09T21:28:52.523Z,75.66
2023-10-09T21:31:23.837Z,75.67
2023-10-09T21:33:52.419Z,75.68
2023-10-09T21:36:21.336Z,75.69
2023-10-09T21:38:51.959Z,75.74
2023-10-09T21:41:23.114Z,75.71
2023-10-09T21:43:57.541Z,75.73
2023-10-09T21:46:27.119Z,75.68
2023-10-09T21:48:59.699Z,75.62
2023-10-09T21:51:28.251Z,75.54
2023-10-09T21:53:59.046Z,75.45
2023-10-09T21:56:31.855Z,75.41
2023-10-09T21:59:00.570Z,75.30
2023-10-09T22:01:29.192Z,75.29
2023-10-09T22:03:58.905Z,75.26
2023-10-09T22:07:31.431Z,75.20
2023-10-09T22:10:15.004Z,75.16
2023-10-09T22:12:50.571Z,75.02
2023-10-09T22:15:19.639Z,74.95
2023-10-09T22:17:48.266Z,75.00
2023-10-09T22:20:24.634Z,74.91
2023-10-09T22:22:57.966Z,74.96
2023-10-09T22:25:37.085Z,75.00
2023-10-09T22:28:12.491Z,75.06
2023-10-09T22:30:44.895Z,75.01
2023-10-09T22:33:22.577Z,75.03
2023-10-09T22:35:56.519Z,75.23
2023-10-09T22:38:30.717Z,75.46
2023-10-09T22:41:02.221Z,75.60
2023-10-09T22:43:33.377Z,75.76
2023-10-09T22:46:13.230Z,75.85
2023-10-09T22:48:49.524Z,75.93
2023-10-09T22:51:25.495Z,75.97
2023-10-09T22:53:54.467Z,76.01
2023-10-09T22:56:22.646Z,76.03
2023-10-09T22:58:57.122Z,76.10
2023-10-09T23:01:32.452Z,76.03
2023-10-09T23:04:11.327Z,76.09
2023-10-09T23:06:45.997Z,76.32
2023-10-09T23:09:32.396Z,76.40
2023-10-09T23:12:10.005Z,76.54
2023-10-09T23:14:40.950Z,76.60
2023-10-09T23:17:09.228Z,76.73
2023-10-09T23:19:42.847Z,76.82
2023-10-09T23:22:16.187Z,76.83
2023-10-09T23:25:09.374Z,76.90
2023-10-09T23:27:39.382Z,76.97
2023-10-09T23:30:24.801Z,76.62
2023-10-09T23:33:12.969Z,76.70
2023-10-09T23:36:15.545Z,76.79
2023-10-09T23:39:02.706Z,76.76
2023-10-09T23:41:34.566Z,76.58
2023-10-09T23:44:10.886Z,76.55
2023-10-09T23:46:41.203Z,76.48
2023-10-09T23:49:10.445Z,76.46
2023-10-09T23:51:41.832Z,76.39
2023-10-09T23:54:13.406Z,76.28
2023-10-09T23:56:48.778Z,76.14
2023-10-09T23:59:18.200Z,76.12
